sensor_id;sensor_type;location;lat;lon;timestamp;pressure;altitude;pressure_sealevel;temperature;humidity
37298;BME280;30517;51.932;4.278;2023-05-03T00:00:12;103014.78;;;14.62;51.29
37298;BME280;30517;51.932;4.278;2023-05-03T00:02:55;103014.72;;;14.58;51.49
37298;BME280;30517;51.932;4.278;2023-05-03T00:05:36;102992.28;;;14.41;51.55
37298;BME280;30517;51.932;4.278;2023-05-03T00:08:17;103015.53;;;14.53;51.64
37298;BME280;30517;51.932;4.278;2023-05-03T00:10:58;102997.50;;;14.35;51.65
37298;BME280;30517;51.932;4.278;2023-05-03T00:13:39;103007.28;;;14.39;51.45
37298;BME280;30517;51.932;4.278;2023-05-03T00:16:20;103017.06;;;14.42;51.60
37298;BME280;30517;51.932;4.278;2023-05-03T00:19:01;102983.97;;;14.20;51.87
37298;BME280;30517;51.932;4.278;2023-05-03T00:21:42;103016.09;;;14.35;51.62
37298;BME280;30517;51.932;4.278;2023-05-03T00:24:23;103000.00;;;14.26;51.74
37298;BME280;30517;51.932;4.278;2023-05-03T00:27:04;102998.19;;;14.23;51.65
37298;BME280;30517;51.932;4.278;2023-05-03T00:29:45;102999.94;;;14.21;51.75
37298;BME280;30517;51.932;4.278;2023-05-03T00:32:26;103015.84;;;14.21;52.02
37298;BME280;30517;51.932;4.278;2023-05-03T00:35:07;103008.69;;;14.17;51.83
37298;BME280;30517;51.932;4.278;2023-05-03T00:37:48;102998.78;;;14.07;51.55
37298;BME280;30517;51.932;4.278;2023-05-03T00:40:29;103013.94;;;14.12;51.84
37298;BME280;30517;51.932;4.278;2023-05-03T00:43:11;103017.38;;;14.08;51.69
37298;BME280;30517;51.932;4.278;2023-05-03T00:45:53;103012.00;;;14.04;51.62
37298;BME280;30517;51.932;4.278;2023-05-03T00:48:33;102997.69;;;13.94;52.18
37298;BME280;30517;51.932;4.278;2023-05-03T00:51:15;103007.41;;;13.93;51.84
37298;BME280;30517;51.932;4.278;2023-05-03T00:53:57;103013.59;;;13.94;51.70
37298;BME280;30517;51.932;4.278;2023-05-03T00:56:38;102971.50;;;13.65;51.97
37298;BME280;30517;51.932;4.278;2023-05-03T00:59:20;102946.28;;;13.42;51.77
37298;BME280;30517;51.932;4.278;2023-05-03T01:02:01;103008.03;;;13.80;51.56
37298;BME280;30517;51.932;4.278;2023-05-03T01:04:43;103024.06;;;13.86;52.00
37298;BME280;30517;51.932;4.278;2023-05-03T01:10:34;103006.09;;;13.71;52.00
37298;BME280;30517;51.932;4.278;2023-05-03T01:16:13;102997.03;;;13.60;52.11
37298;BME280;30517;51.932;4.278;2023-05-03T01:18:56;103005.25;;;13.72;51.84
37298;BME280;30517;51.932;4.278;2023-05-03T01:21:42;102956.91;;;13.42;51.86
37298;BME280;30517;51.932;4.278;2023-05-03T01:24:28;103008.63;;;13.65;51.63
37298;BME280;30517;51.932;4.278;2023-05-03T01:27:11;103004.88;;;13.54;51.94
37298;BME280;30517;51.932;4.278;2023-05-03T01:29:52;102993.41;;;13.55;52.36
37298;BME280;30517;51.932;4.278;2023-05-03T01:35:39;102991.56;;;13.53;51.77
37298;BME280;30517;51.932;4.278;2023-05-03T01:38:23;102977.84;;;13.28;51.92
37298;BME280;30517;51.932;4.278;2023-05-03T01:41:08;102948.66;;;13.26;52.05
37298;BME280;30517;51.932;4.278;2023-05-03T01:43:50;102974.63;;;13.44;52.25
37298;BME280;30517;51.932;4.278;2023-05-03T01:46:32;102923.75;;;13.20;52.15
37298;BME280;30517;51.932;4.278;2023-05-03T01:49:12;102904.03;;;13.05;51.96
37298;BME280;30517;51.932;4.278;2023-05-03T01:51:53;102955.91;;;13.35;52.26
37298;BME280;30517;51.932;4.278;2023-05-03T01:54:34;102952.34;;;13.35;52.23
37298;BME280;30517;51.932;4.278;2023-05-03T01:57:15;102893.47;;;13.07;51.90
37298;BME280;30517;51.932;4.278;2023-05-03T01:59:56;102936.34;;;13.28;52.04
37298;BME280;30517;51.932;4.278;2023-05-03T02:02:37;102937.19;;;13.27;52.29
37298;BME280;30517;51.932;4.278;2023-05-03T02:05:18;102929.16;;;13.24;52.47
37298;BME280;30517;51.932;4.278;2023-05-03T02:07:58;102946.75;;;13.21;52.28
37298;BME280;30517;51.932;4.278;2023-05-03T02:10:42;102942.28;;;13.18;52.10
37298;BME280;30517;51.932;4.278;2023-05-03T02:13:23;102944.78;;;13.11;51.88
37298;BME280;30517;51.932;4.278;2023-05-03T02:16:04;102921.56;;;12.99;52.18
37298;BME280;30517;51.932;4.278;2023-05-03T02:18:46;102946.53;;;13.12;52.34
37298;BME280;30517;51.932;4.278;2023-05-03T02:21:27;102952.66;;;13.07;51.90
37298;BME280;30517;51.932;4.278;2023-05-03T02:24:08;102942.66;;;12.96;52.11
37298;BME280;30517;51.932;4.278;2023-05-03T02:26:49;102972.88;;;13.04;52.20
37298;BME280;30517;51.932;4.278;2023-05-03T02:29:30;102962.97;;;12.94;52.26
37298;BME280;30517;51.932;4.278;2023-05-03T02:32:10;102981.56;;;12.97;52.59
37298;BME280;30517;51.932;4.278;2023-05-03T02:34:51;102968.31;;;12.97;52.43
37298;BME280;30517;51.932;4.278;2023-05-03T02:37:32;102954.84;;;12.86;52.46
37298;BME280;30517;51.932;4.278;2023-05-03T02:40:13;102912.59;;;12.51;52.16
37298;BME280;30517;51.932;4.278;2023-05-03T02:42:54;102982.28;;;12.88;51.97
37298;BME280;30517;51.932;4.278;2023-05-03T02:45:35;102974.28;;;12.87;52.34
37298;BME280;30517;51.932;4.278;2023-05-03T02:48:16;102969.81;;;12.84;52.34
37298;BME280;30517;51.932;4.278;2023-05-03T02:50:57;102950.97;;;12.70;52.46
37298;BME280;30517;51.932;4.278;2023-05-03T02:53:38;102974.16;;;12.82;52.00
37298;BME280;30517;51.932;4.278;2023-05-03T02:56:19;102974.09;;;12.77;51.80
37298;BME280;30517;51.932;4.278;2023-05-03T02:59:00;102948.00;;;12.58;52.45
37298;BME280;30517;51.932;4.278;2023-05-03T03:01:40;102964.00;;;12.62;52.05
37298;BME280;30517;51.932;4.278;2023-05-03T03:04:21;102988.91;;;12.71;51.57
37298;BME280;30517;51.932;4.278;2023-05-03T03:07:02;102984.25;;;12.59;52.28
37298;BME280;30517;51.932;4.278;2023-05-03T03:09:43;102993.19;;;12.64;51.97
37298;BME280;30517;51.932;4.278;2023-05-03T03:12:24;102919.06;;;12.26;52.22
37298;BME280;30517;51.932;4.278;2023-05-03T03:15:07;102984.19;;;12.56;51.78
37298;BME280;30517;51.932;4.278;2023-05-03T03:17:48;102973.34;;;12.47;52.12
37298;BME280;30517;51.932;4.278;2023-05-03T03:20:29;102962.63;;;12.40;51.99
37298;BME280;30517;51.932;4.278;2023-05-03T03:23:09;102995.59;;;12.55;52.02
37298;BME280;30517;51.932;4.278;2023-05-03T03:25:50;102963.44;;;12.38;52.18
37298;BME280;30517;51.932;4.278;2023-05-03T03:28:32;102986.69;;;12.51;52.20
37298;BME280;30517;51.932;4.278;2023-05-03T03:31:12;102987.31;;;12.39;52.17
37298;BME280;30517;51.932;4.278;2023-05-03T03:33:53;102994.53;;;12.47;52.43
37298;BME280;30517;51.932;4.278;2023-05-03T03:36:34;102990.03;;;12.43;52.35
37298;BME280;30517;51.932;4.278;2023-05-03T03:39:17;102983.59;;;12.31;52.30
37298;BME280;30517;51.932;4.278;2023-05-03T03:41:58;102995.16;;;12.36;52.78
37298;BME280;30517;51.932;4.278;2023-05-03T03:44:39;102983.25;;;12.19;52.39
37298;BME280;30517;51.932;4.278;2023-05-03T03:47:20;102990.41;;;12.23;52.94
37298;BME280;30517;51.932;4.278;2023-05-03T03:50:01;102991.06;;;12.13;52.52
37298;BME280;30517;51.932;4.278;2023-05-03T03:52:42;102976.56;;;11.99;52.54
37298;BME280;30517;51.932;4.278;2023-05-03T03:55:23;103028.31;;;12.22;52.74
37298;BME280;30517;51.932;4.278;2023-05-03T03:58:04;103020.34;;;12.21;52.28
37298;BME280;30517;51.932;4.278;2023-05-03T04:00:45;102963.69;;;11.79;52.79
37298;BME280;30517;51.932;4.278;2023-05-03T04:03:26;103023.75;;;12.16;52.52
37298;BME280;30517;51.932;4.278;2023-05-03T04:06:07;103023.63;;;12.12;53.09
37298;BME280;30517;51.932;4.278;2023-05-03T04:08:48;102980.69;;;11.87;53.35
37298;BME280;30517;51.932;4.278;2023-05-03T04:11:29;102996.59;;;11.89;52.54
37298;BME280;30517;51.932;4.278;2023-05-03T04:14:10;102967.19;;;11.78;52.47
37298;BME280;30517;51.932;4.278;2023-05-03T04:16:50;102907.91;;;11.37;52.28
37298;BME280;30517;51.932;4.278;2023-05-03T04:19:31;103021.56;;;12.00;52.75
37298;BME280;30517;51.932;4.278;2023-05-03T04:22:12;103013.50;;;11.95;52.71
37298;BME280;30517;51.932;4.278;2023-05-03T04:24:53;103011.66;;;11.91;53.08
37298;BME280;30517;51.932;4.278;2023-05-03T04:27:34;103008.06;;;11.89;52.93
37298;BME280;30517;51.932;4.278;2023-05-03T04:30:14;103005.41;;;11.89;52.93
37298;BME280;30517;51.932;4.278;2023-05-03T04:32:56;102983.72;;;11.71;52.77
37298;BME280;30517;51.932;4.278;2023-05-03T04:35:39;103001.69;;;11.83;52.75
37298;BME280;30517;51.932;4.278;2023-05-03T04:38:20;102966.69;;;11.60;52.93
37298;BME280;30517;51.932;4.278;2023-05-03T04:41:01;102965.53;;;11.50;52.92
37298;BME280;30517;51.932;4.278;2023-05-03T04:43:42;102997.69;;;11.65;52.68
37298;BME280;30517;51.932;4.278;2023-05-03T04:46:23;102974.41;;;11.52;52.33
37298;BME280;30517;51.932;4.278;2023-05-03T04:49:04;102999.50;;;11.68;51.84
37298;BME280;30517;51.932;4.278;2023-05-03T04:51:44;102987.91;;;11.61;52.25
37298;BME280;30517;51.932;4.278;2023-05-03T04:54:25;103003.03;;;11.67;52.16
37298;BME280;30517;51.932;4.278;2023-05-03T04:57:06;103005.59;;;11.64;51.95
37298;BME280;30517;51.932;4.278;2023-05-03T04:59:49;103027.66;;;11.66;51.86
37298;BME280;30517;51.932;4.278;2023-05-03T05:02:30;102966.97;;;11.39;52.25
37298;BME280;30517;51.932;4.278;2023-05-03T05:05:11;103016.81;;;11.57;52.06
37298;BME280;30517;51.932;4.278;2023-05-03T05:07:51;102995.41;;;11.47;52.54
37298;BME280;30517;51.932;4.278;2023-05-03T05:10:45;102974.75;;;11.33;52.37
37298;BME280;30517;51.932;4.278;2023-05-03T05:13:25;102999.88;;;11.50;52.70
37298;BME280;30517;51.932;4.278;2023-05-03T05:16:06;103004.13;;;11.45;52.25
37298;BME280;30517;51.932;4.278;2023-05-03T05:18:47;103004.97;;;11.42;52.34
37298;BME280;30517;51.932;4.278;2023-05-03T05:21:28;103017.31;;;11.43;52.08
37298;BME280;30517;51.932;4.278;2023-05-03T05:24:09;102948.44;;;11.07;52.63
37298;BME280;30517;51.932;4.278;2023-05-03T05:26:53;103026.22;;;11.47;52.88
37298;BME280;30517;51.932;4.278;2023-05-03T05:29:34;103035.81;;;11.43;52.49
37298;BME280;30517;51.932;4.278;2023-05-03T05:32:15;103017.56;;;11.21;52.37
37298;BME280;30517;51.932;4.278;2023-05-03T05:34:56;103028.31;;;11.27;52.86
37298;BME280;30517;51.932;4.278;2023-05-03T05:37:36;103045.22;;;11.34;53.16
37298;BME280;30517;51.932;4.278;2023-05-03T05:40:17;102978.94;;;10.96;53.23
37298;BME280;30517;51.932;4.278;2023-05-03T05:42:58;103009.25;;;11.08;53.42
37298;BME280;30517;51.932;4.278;2023-05-03T05:45:39;103043.19;;;11.25;53.14
37298;BME280;30517;51.932;4.278;2023-05-03T05:48:20;103009.19;;;11.07;53.64
37298;BME280;30517;51.932;4.278;2023-05-03T05:51:01;103034.22;;;11.18;53.91
37298;BME280;30517;51.932;4.278;2023-05-03T05:53:45;103002.75;;;10.97;53.72
37298;BME280;30517;51.932;4.278;2023-05-03T05:56:25;103031.41;;;11.14;54.06
37298;BME280;30517;51.932;4.278;2023-05-03T05:59:06;103037.66;;;11.16;53.63
37298;BME280;30517;51.932;4.278;2023-05-03T06:01:47;102949.69;;;10.61;53.79
37298;BME280;30517;51.932;4.278;2023-05-03T06:04:28;103027.66;;;11.05;54.08
37298;BME280;30517;51.932;4.278;2023-05-03T06:07:09;103026.69;;;11.03;54.22
37298;BME280;30517;51.932;4.278;2023-05-03T06:09:50;103026.75;;;11.05;54.43
37298;BME280;30517;51.932;4.278;2023-05-03T06:12:31;103039.09;;;11.06;54.09
37298;BME280;30517;51.932;4.278;2023-05-03T06:15:12;103017.72;;;10.97;54.28
37298;BME280;30517;51.932;4.278;2023-05-03T06:17:53;103021.41;;;11.02;54.30
37298;BME280;30517;51.932;4.278;2023-05-03T06:20:33;103005.25;;;10.93;54.59
37298;BME280;30517;51.932;4.278;2023-05-03T06:23:14;103022.19;;;10.99;54.38
37298;BME280;30517;51.932;4.278;2023-05-03T06:25:55;102960.31;;;10.62;54.45
37298;BME280;30517;51.932;4.278;2023-05-03T06:28:36;102980.25;;;10.81;54.52
37298;BME280;30517;51.932;4.278;2023-05-03T06:31:17;103017.81;;;11.00;54.58
37298;BME280;30517;51.932;4.278;2023-05-03T06:33:58;103019.56;;;10.99;54.28
37298;BME280;30517;51.932;4.278;2023-05-03T06:36:39;102991.88;;;10.88;54.77
37298;BME280;30517;51.932;4.278;2023-05-03T06:39:20;103005.34;;;10.96;54.70
37298;BME280;30517;51.932;4.278;2023-05-03T06:42:01;103013.25;;;10.96;54.45
37298;BME280;30517;51.932;4.278;2023-05-03T06:44:42;102999.53;;;10.79;54.74
37298;BME280;30517;51.932;4.278;2023-05-03T06:47:23;103006.09;;;10.92;54.47
37298;BME280;30517;51.932;4.278;2023-05-03T06:50:05;102965.88;;;10.72;54.41
37298;BME280;30517;51.932;4.278;2023-05-03T06:52:46;102993.84;;;10.94;53.91
37298;BME280;30517;51.932;4.278;2023-05-03T06:55:26;103001.06;;;10.99;54.32
37298;BME280;30517;51.932;4.278;2023-05-03T06:58:07;103014.91;;;10.92;54.50
37298;BME280;30517;51.932;4.278;2023-05-03T07:00:51;102954.47;;;10.73;54.27
37298;BME280;30517;51.932;4.278;2023-05-03T07:03:33;102966.13;;;10.79;54.85
37298;BME280;30517;51.932;4.278;2023-05-03T07:06:13;102983.94;;;10.87;54.47
37298;BME280;30517;51.932;4.278;2023-05-03T07:08:55;102980.50;;;10.89;54.26
37298;BME280;30517;51.932;4.278;2023-05-03T07:11:37;102989.56;;;10.97;54.91
37298;BME280;30517;51.932;4.278;2023-05-03T07:14:23;102975.56;;;11.01;54.68
37298;BME280;30517;51.932;4.278;2023-05-03T07:17:06;102972.03;;;11.01;54.46
37298;BME280;30517;51.932;4.278;2023-05-03T07:19:48;102970.91;;;10.91;54.51
37298;BME280;30517;51.932;4.278;2023-05-03T07:22:29;102981.72;;;11.00;54.72
37298;BME280;30517;51.932;4.278;2023-05-03T07:25:10;102968.44;;;10.99;54.75
37298;BME280;30517;51.932;4.278;2023-05-03T07:27:53;102983.50;;;11.01;54.38
37298;BME280;30517;51.932;4.278;2023-05-03T07:30:34;102847.63;;;10.30;54.82
37298;BME280;30517;51.932;4.278;2023-05-03T07:33:15;102945.28;;;10.89;54.81
37298;BME280;30517;51.932;4.278;2023-05-03T07:35:56;102953.72;;;11.05;54.51
37298;BME280;30517;51.932;4.278;2023-05-03T07:38:37;102940.22;;;10.96;54.25
37298;BME280;30517;51.932;4.278;2023-05-03T07:41:17;102964.28;;;11.05;54.58
37298;BME280;30517;51.932;4.278;2023-05-03T07:43:58;102958.69;;;10.96;54.83
37298;BME280;30517;51.932;4.278;2023-05-03T07:46:39;102964.81;;;10.94;54.69
37298;BME280;30517;51.932;4.278;2023-05-03T07:49:20;102981.91;;;11.06;54.68
37298;BME280;30517;51.932;4.278;2023-05-03T07:52:01;102963.94;;;10.95;54.41
37298;BME280;30517;51.932;4.278;2023-05-03T07:54:42;102967.81;;;11.06;54.42
37298;BME280;30517;51.932;4.278;2023-05-03T07:57:24;102973.94;;;11.05;54.76
37298;BME280;30517;51.932;4.278;2023-05-03T08:00:06;102976.81;;;11.13;54.64
37298;BME280;30517;51.932;4.278;2023-05-03T08:02:49;102958.09;;;11.05;54.43
37298;BME280;30517;51.932;4.278;2023-05-03T08:05:31;102925.16;;;10.92;54.29
37298;BME280;30517;51.932;4.278;2023-05-03T08:08:14;102963.63;;;11.13;54.84
37298;BME280;30517;51.932;4.278;2023-05-03T08:10:55;102962.81;;;11.15;54.18
37298;BME280;30517;51.932;4.278;2023-05-03T08:13:36;102954.88;;;11.15;54.72
37298;BME280;30517;51.932;4.278;2023-05-03T08:16:17;102956.56;;;11.13;54.31
37298;BME280;30517;51.932;4.278;2023-05-03T08:18:58;102953.03;;;11.13;54.26
37298;BME280;30517;51.932;4.278;2023-05-03T08:21:39;102956.56;;;11.13;54.10
37298;BME280;30517;51.932;4.278;2023-05-03T08:24:20;102968.91;;;11.14;54.58
37298;BME280;30517;51.932;4.278;2023-05-03T08:27:01;102970.84;;;11.20;54.49
37298;BME280;30517;51.932;4.278;2023-05-03T08:29:42;102912.91;;;10.96;54.42
37298;BME280;30517;51.932;4.278;2023-05-03T08:32:23;102930.81;;;11.04;54.34
37298;BME280;30517;51.932;4.278;2023-05-03T08:35:04;102945.94;;;11.10;55.00
37298;BME280;30517;51.932;4.278;2023-05-03T08:37:46;102964.72;;;11.21;54.92
37298;BME280;30517;51.932;4.278;2023-05-03T08:40:27;102975.31;;;11.22;54.56
37298;BME280;30517;51.932;4.278;2023-05-03T08:43:09;102955.72;;;11.14;54.49
37298;BME280;30517;51.932;4.278;2023-05-03T08:45:49;102970.97;;;11.24;54.84
37298;BME280;30517;51.932;4.278;2023-05-03T08:48:30;102979.84;;;11.26;54.32
37298;BME280;30517;51.932;4.278;2023-05-03T08:51:12;102992.34;;;11.32;54.63
37298;BME280;30517;51.932;4.278;2023-05-03T08:53:53;102986.06;;;11.28;54.64
37298;BME280;30517;51.932;4.278;2023-05-03T08:56:42;102990.59;;;11.33;54.84
37298;BME280;30517;51.932;4.278;2023-05-03T08:59:23;102984.50;;;11.35;54.99
37298;BME280;30517;51.932;4.278;2023-05-03T09:02:07;102966.66;;;11.28;54.58
37298;BME280;30517;51.932;4.278;2023-05-03T09:04:49;102989.00;;;11.39;54.66
37298;BME280;30517;51.932;4.278;2023-05-03T09:07:30;102937.38;;;11.19;54.67
37298;BME280;30517;51.932;4.278;2023-05-03T09:10:23;102976.59;;;11.37;54.09
37298;BME280;30517;51.932;4.278;2023-05-03T09:13:04;102977.91;;;11.51;54.59
37298;BME280;30517;51.932;4.278;2023-05-03T09:15:56;102977.91;;;11.51;54.06
37298;BME280;30517;51.932;4.278;2023-05-03T09:18:37;102985.13;;;11.57;54.78
37298;BME280;30517;51.932;4.278;2023-05-03T09:21:19;102979.00;;;11.59;54.46
37298;BME280;30517;51.932;4.278;2023-05-03T09:24:00;102978.22;;;11.63;54.63
37298;BME280;30517;51.932;4.278;2023-05-03T09:26:44;102971.31;;;11.67;54.52
37298;BME280;30517;51.932;4.278;2023-05-03T09:29:29;102970.56;;;11.72;53.75
37298;BME280;30517;51.932;4.278;2023-05-03T09:32:11;102973.28;;;11.76;54.31
37298;BME280;30517;51.932;4.278;2023-05-03T09:35:07;102971.53;;;11.76;53.87
37298;BME280;30517;51.932;4.278;2023-05-03T09:37:49;102941.34;;;11.68;54.07
37298;BME280;30517;51.932;4.278;2023-05-03T09:40:30;102961.78;;;11.73;54.21
37298;BME280;30517;51.932;4.278;2023-05-03T09:43:11;102976.53;;;11.97;53.69
37298;BME280;30517;51.932;4.278;2023-05-03T09:46:10;102974.84;;;11.99;53.64
37298;BME280;30517;51.932;4.278;2023-05-03T09:48:51;102965.06;;;11.97;53.67
37298;BME280;30517;51.932;4.278;2023-05-03T09:51:35;102963.34;;;11.99;53.92
37298;BME280;30517;51.932;4.278;2023-05-03T09:54:15;102958.16;;;12.02;53.53
37298;BME280;30517;51.932;4.278;2023-05-03T09:56:56;102967.06;;;12.07;53.43
37298;BME280;30517;51.932;4.278;2023-05-03T09:59:38;102958.16;;;12.02;53.67
37298;BME280;30517;51.932;4.278;2023-05-03T10:02:19;102950.16;;;12.00;53.21
37298;BME280;30517;51.932;4.278;2023-05-03T10:05:02;102964.53;;;12.11;53.71
37298;BME280;30517;51.932;4.278;2023-05-03T10:07:44;102961.88;;;12.10;53.59
37298;BME280;30517;51.932;4.278;2023-05-03T10:10:27;102957.69;;;12.18;53.42
37298;BME280;30517;51.932;4.278;2023-05-03T10:13:12;102935.50;;;12.13;53.02
37298;BME280;30517;51.932;4.278;2023-05-03T10:15:58;102924.84;;;12.10;53.11
37298;BME280;30517;51.932;4.278;2023-05-03T10:18:47;102918.75;;;12.12;53.05
37298;BME280;30517;51.932;4.278;2023-05-03T10:21:53;102951.72;;;12.27;53.30
37298;BME280;30517;51.932;4.278;2023-05-03T10:30:30;102937.59;;;12.28;53.12
37298;BME280;30517;51.932;4.278;2023-05-03T10:35:53;102937.72;;;12.32;53.25
37298;BME280;30517;51.932;4.278;2023-05-03T10:38:35;102951.28;;;12.46;52.90
37298;BME280;30517;51.932;4.278;2023-05-03T10:41:23;102951.34;;;12.48;52.71
37298;BME280;30517;51.932;4.278;2023-05-03T10:44:25;102961.91;;;12.48;52.91
37298;BME280;30517;51.932;4.278;2023-05-03T10:47:12;102943.53;;;12.55;52.96
37298;BME280;30517;51.932;4.278;2023-05-03T10:52:56;102928.41;;;12.50;52.80
37298;BME280;30517;51.932;4.278;2023-05-03T10:55:38;102948.13;;;12.61;53.25
37298;BME280;30517;51.932;4.278;2023-05-03T10:58:19;102941.06;;;12.63;52.85
37298;BME280;30517;51.932;4.278;2023-05-03T11:01:01;102938.50;;;12.66;53.53
37298;BME280;30517;51.932;4.278;2023-05-03T11:09:11;102867.41;;;12.44;53.19
37298;BME280;30517;51.932;4.278;2023-05-03T11:11:53;102926.44;;;12.79;53.13
37298;BME280;30517;51.932;4.278;2023-05-03T11:14:34;102893.47;;;12.65;53.24
37298;BME280;30517;51.932;4.278;2023-05-03T11:17:16;102912.41;;;12.84;52.57
37298;BME280;30517;51.932;4.278;2023-05-03T11:19:57;102829.59;;;12.49;53.33
37298;BME280;30517;51.932;4.278;2023-05-03T11:22:38;102899.34;;;12.92;53.32
37298;BME280;30517;51.932;4.278;2023-05-03T11:25:18;102908.22;;;12.94;52.84
37298;BME280;30517;51.932;4.278;2023-05-03T11:28:00;102902.09;;;12.97;53.38
37298;BME280;30517;51.932;4.278;2023-05-03T11:30:41;102888.81;;;12.95;53.07
37298;BME280;30517;51.932;4.278;2023-05-03T11:33:23;102901.38;;;13.05;53.08
37298;BME280;30517;51.932;4.278;2023-05-03T11:36:06;102908.50;;;13.08;53.22
37298;BME280;30517;51.932;4.278;2023-05-03T11:38:48;102907.69;;;13.12;53.42
37298;BME280;30517;51.932;4.278;2023-05-03T11:41:29;102889.25;;;13.17;52.75
37298;BME280;30517;51.932;4.278;2023-05-03T11:44:10;102885.75;;;13.19;53.41
37298;BME280;30517;51.932;4.278;2023-05-03T11:46:51;102891.16;;;13.24;52.72
37298;BME280;30517;51.932;4.278;2023-05-03T11:49:32;102881.53;;;13.27;53.33
37298;BME280;30517;51.932;4.278;2023-05-03T11:52:12;102872.78;;;13.32;52.97
37298;BME280;30517;51.932;4.278;2023-05-03T11:54:53;102859.50;;;13.28;52.89
37298;BME280;30517;51.932;4.278;2023-05-03T11:57:35;102862.34;;;13.41;52.90
37298;BME280;30517;51.932;4.278;2023-05-03T12:00:17;102866.84;;;13.45;52.92
37298;BME280;30517;51.932;4.278;2023-05-03T12:03:01;102861.59;;;13.49;53.02
37298;BME280;30517;51.932;4.278;2023-05-03T12:05:42;102857.22;;;13.52;53.20
37298;BME280;30517;51.932;4.278;2023-05-03T12:08:32;102863.59;;;13.61;52.73
37298;BME280;30517;51.932;4.278;2023-05-03T12:11:13;102844.13;;;13.59;52.91
37298;BME280;30517;51.932;4.278;2023-05-03T12:13:55;102813.88;;;13.49;52.88
37298;BME280;30517;51.932;4.278;2023-05-03T12:16:48;102751.66;;;13.26;53.04
37298;BME280;30517;51.932;4.278;2023-05-03T12:19:30;102832.13;;;13.83;52.95
37298;BME280;30517;51.932;4.278;2023-05-03T12:22:18;102823.34;;;13.87;52.97
37298;BME280;30517;51.932;4.278;2023-05-03T12:24:59;102827.94;;;13.97;53.25
37298;BME280;30517;51.932;4.278;2023-05-03T12:27:42;102825.41;;;14.05;52.54
37298;BME280;30517;51.932;4.278;2023-05-03T12:30:23;102813.91;;;14.04;52.47
37298;BME280;30517;51.932;4.278;2023-05-03T12:33:10;102825.59;;;14.19;52.88
37298;BME280;30517;51.932;4.278;2023-05-03T12:35:51;102805.28;;;14.21;52.58
37298;BME280;30517;51.932;4.278;2023-05-03T12:38:32;102792.91;;;14.21;52.65
37298;BME280;30517;51.932;4.278;2023-05-03T12:41:14;102801.13;;;14.41;52.39
37298;BME280;30517;51.932;4.278;2023-05-03T12:43:56;102791.41;;;14.43;52.25
37298;BME280;30517;51.932;4.278;2023-05-03T12:46:37;102784.41;;;14.48;52.30
37298;BME280;30517;51.932;4.278;2023-05-03T12:49:18;102804.09;;;14.64;52.25
37298;BME280;30517;51.932;4.278;2023-05-03T12:51:59;102771.28;;;14.59;52.40
37298;BME280;30517;51.932;4.278;2023-05-03T12:54:40;102788.31;;;14.78;52.47
37298;BME280;30517;51.932;4.278;2023-05-03T12:57:21;102791.06;;;14.86;51.98
37298;BME280;30517;51.932;4.278;2023-05-03T13:00:02;102786.72;;;14.94;52.32
37298;BME280;30517;51.932;4.278;2023-05-03T13:02:43;102775.28;;;15.01;51.91
37298;BME280;30517;51.932;4.278;2023-05-03T13:05:24;102775.34;;;15.07;51.91
37298;BME280;30517;51.932;4.278;2023-05-03T13:08:05;102772.72;;;15.10;52.08
37298;BME280;30517;51.932;4.278;2023-05-03T13:10:46;102768.41;;;15.23;51.87
37298;BME280;30517;51.932;4.278;2023-05-03T13:13:28;102773.81;;;15.32;51.57
37298;BME280;30517;51.932;4.278;2023-05-03T13:16:09;102765.88;;;15.38;51.77
37298;BME280;30517;51.932;4.278;2023-05-03T13:18:50;102753.53;;;15.46;51.74
37298;BME280;30517;51.932;4.278;2023-05-03T13:21:34;102727.75;;;15.38;51.52
37298;BME280;30517;51.932;4.278;2023-05-03T13:24:15;102722.56;;;15.50;51.44
37298;BME280;30517;51.932;4.278;2023-05-03T13:26:56;102744.00;;;15.70;51.54
37298;BME280;30517;51.932;4.278;2023-05-03T13:29:37;102723.59;;;15.70;51.43
37298;BME280;30517;51.932;4.278;2023-05-03T13:32:18;102644.41;;;15.31;51.29
37298;BME280;30517;51.932;4.278;2023-05-03T13:34:59;102727.25;;;15.92;51.17
37298;BME280;30517;51.932;4.278;2023-05-03T13:37:40;102736.19;;;16.01;51.33
37298;BME280;30517;51.932;4.278;2023-05-03T13:40:20;102706.91;;;16.01;51.33
37298;BME280;30517;51.932;4.278;2023-05-03T13:43:03;102714.97;;;16.16;51.07
37298;BME280;30517;51.932;4.278;2023-05-03T13:53:01;102695.50;;;16.38;51.25
37298;BME280;30517;51.932;4.278;2023-05-03T13:55:42;102667.09;;;16.31;50.98
37298;BME280;30517;51.932;4.278;2023-05-03T13:58:23;102698.25;;;16.62;50.52
37298;BME280;30517;51.932;4.278;2023-05-03T14:01:04;102687.59;;;16.65;50.77
37298;BME280;30517;51.932;4.278;2023-05-03T14:03:45;102684.09;;;16.79;51.02
37298;BME280;30517;51.932;4.278;2023-05-03T14:06:26;102674.34;;;16.83;50.60
37298;BME280;30517;51.932;4.278;2023-05-03T14:09:08;102680.56;;;16.96;50.67
37298;BME280;30517;51.932;4.278;2023-05-03T14:11:49;102659.22;;;16.93;50.79
37298;BME280;30517;51.932;4.278;2023-05-03T14:14:30;102644.13;;;16.98;50.81
37298;BME280;30517;51.932;4.278;2023-05-03T14:17:11;102630.81;;;17.04;50.59
37298;BME280;30517;51.932;4.278;2023-05-03T14:19:52;102626.34;;;17.15;50.57
37298;BME280;30517;51.932;4.278;2023-05-03T14:22:32;102655.66;;;17.37;50.34
37298;BME280;30517;51.932;4.278;2023-05-03T14:25:13;102649.38;;;17.47;50.41
37298;BME280;30517;51.932;4.278;2023-05-03T14:27:54;102644.03;;;17.55;50.54
37298;BME280;30517;51.932;4.278;2023-05-03T14:30:35;102629.81;;;17.54;50.36
37298;BME280;30517;51.932;4.278;2023-05-03T14:33:16;102637.75;;;17.73;50.45
37298;BME280;30517;51.932;4.278;2023-05-03T14:35:57;102593.34;;;17.56;50.38
37298;BME280;30517;51.932;4.278;2023-05-03T14:38:38;102629.75;;;17.88;50.30